sensor_id;sensor_type;location;lat;lon;timestamp;temperature;humidity
11666;DHT22;5889;51.350;6.708;2022-09-13T00:02:00;19.50;99.90
11666;DHT22;5889;51.350;6.708;2022-09-13T00:04:27;19.50;99.90
11666;DHT22;5889;51.350;6.708;2022-09-13T00:06:54;19.50;99.90
11666;DHT22;5889;51.350;6.708;2022-09-13T00:09:21;19.50;99.90
11666;DHT22;5889;51.350;6.708;2022-09-13T00:11:48;19.50;99.90
11666;DHT22;5889;51.350;6.708;2022-09-13T00:14:15;19.40;99.90
11666;DHT22;5889;51.350;6.708;2022-09-13T00:16:43;19.40;99.90
11666;DHT22;5889;51.350;6.708;2022-09-13T00:19:10;19.40;99.90
11666;DHT22;5889;51.350;6.708;2022-09-13T00:21:37;19.40;99.90
11666;DHT22;5889;51.350;6.708;2022-09-13T00:24:04;19.40;99.90
11666;DHT22;5889;51.350;6.708;2022-09-13T00:26:31;19.40;99.90
11666;DHT22;5889;51.350;6.708;2022-09-13T00:28:58;19.30;99.90
11666;DHT22;5889;51.350;6.708;2022-09-13T00:31:26;19.30;99.90
11666;DHT22;5889;51.350;6.708;2022-09-13T00:33:57;19.30;99.90
11666;DHT22;5889;51.350;6.708;2022-09-13T00:36:24;19.30;99.90
11666;DHT22;5889;51.350;6.708;2022-09-13T00:38:51;19.30;99.90
11666;DHT22;5889;51.350;6.708;2022-09-13T00:41:19;19.30;99.90
11666;DHT22;5889;51.350;6.708;2022-09-13T00:43:49;19.30;99.90
11666;DHT22;5889;51.350;6.708;2022-09-13T00:46:21;19.30;99.90
11666;DHT22;5889;51.350;6.708;2022-09-13T00:48:52;19.30;99.90
11666;DHT22;5889;51.350;6.708;2022-09-13T00:51:23;19.30;99.90
11666;DHT22;5889;51.350;6.708;2022-09-13T00:53:52;19.30;99.90
11666;DHT22;5889;51.350;6.708;2022-09-13T00:56:23;19.30;99.90
11666;DHT22;5889;51.350;6.708;2022-09-13T00:58:54;19.30;99.90
11666;DHT22;5889;51.350;6.708;2022-09-13T01:01:27;19.30;99.90
11666;DHT22;5889;51.350;6.708;2022-09-13T01:03:55;19.20;99.90
11666;DHT22;5889;51.350;6.708;2022-09-13T01:06:28;19.20;99.90
11666;DHT22;5889;51.350;6.708;2022-09-13T01:08:59;19.20;99.90
11666;DHT22;5889;51.350;6.708;2022-09-13T01:11:31;19.10;99.90
11666;DHT22;5889;51.350;6.708;2022-09-13T01:13:59;19.10;99.90
11666;DHT22;5889;51.350;6.708;2022-09-13T01:16:26;19.10;99.90
11666;DHT22;5889;51.350;6.708;2022-09-13T01:18:53;19.10;99.90
11666;DHT22;5889;51.350;6.708;2022-09-13T01:21:46;19.00;99.90
11666;DHT22;5889;51.350;6.708;2022-09-13T01:27:27;19.00;99.90
11666;DHT22;5889;51.350;6.708;2022-09-13T01:30:12;19.00;99.90
11666;DHT22;5889;51.350;6.708;2022-09-13T01:33:11;19.00;99.90
11666;DHT22;5889;51.350;6.708;2022-09-13T01:39:02;19.00;99.90
11666;DHT22;5889;51.350;6.708;2022-09-13T01:41:46;18.90;99.90
11666;DHT22;5889;51.350;6.708;2022-09-13T01:44:29;19.00;99.90
11666;DHT22;5889;51.350;6.708;2022-09-13T01:47:06;19.00;99.90
11666;DHT22;5889;51.350;6.708;2022-09-13T01:49:43;19.00;99.90
11666;DHT22;5889;51.350;6.708;2022-09-13T01:52:17;19.00;99.90
11666;DHT22;5889;51.350;6.708;2022-09-13T01:54:52;19.00;99.90
11666;DHT22;5889;51.350;6.708;2022-09-13T01:57:29;19.00;99.90
11666;DHT22;5889;51.350;6.708;2022-09-13T02:00:02;19.00;99.90
11666;DHT22;5889;51.350;6.708;2022-09-13T02:02:33;19.00;99.90
11666;DHT22;5889;51.350;6.708;2022-09-13T02:05:06;19.00;99.90
11666;DHT22;5889;51.350;6.708;2022-09-13T02:07:39;19.00;99.90
11666;DHT22;5889;51.350;6.708;2022-09-13T02:10:12;19.00;99.90
11666;DHT22;5889;51.350;6.708;2022-09-13T02:12:41;19.00;99.90
11666;DHT22;5889;51.350;6.708;2022-09-13T02:15:12;19.00;99.90
11666;DHT22;5889;51.350;6.708;2022-09-13T02:17:45;19.00;99.90
11666;DHT22;5889;51.350;6.708;2022-09-13T02:20:17;19.00;99.90
11666;DHT22;5889;51.350;6.708;2022-09-13T02:22:49;18.90;99.90
11666;DHT22;5889;51.350;6.708;2022-09-13T02:25:20;19.00;99.90
11666;DHT22;5889;51.350;6.708;2022-09-13T02:27:50;19.00;99.90
11666;DHT22;5889;51.350;6.708;2022-09-13T02:30:19;19.00;99.90
11666;DHT22;5889;51.350;6.708;2022-09-13T02:32:53;19.00;99.90
11666;DHT22;5889;51.350;6.708;2022-09-13T02:35:25;19.00;99.90
11666;DHT22;5889;51.350;6.708;2022-09-13T02:37:57;19.00;99.90
11666;DHT22;5889;51.350;6.708;2022-09-13T02:40:29;19.00;99.90
11666;DHT22;5889;51.350;6.708;2022-09-13T02:43:00;19.00;99.90
11666;DHT22;5889;51.350;6.708;2022-09-13T02:45:32;19.00;99.90
11666;DHT22;5889;51.350;6.708;2022-09-13T02:48:04;19.00;99.90
11666;DHT22;5889;51.350;6.708;2022-09-13T02:50:38;19.00;99.90
11666;DHT22;5889;51.350;6.708;2022-09-13T02:53:15;19.00;99.90
11666;DHT22;5889;51.350;6.708;2022-09-13T02:55:47;19.00;99.90
11666;DHT22;5889;51.350;6.708;2022-09-13T02:58:20;19.00;99.90
11666;DHT22;5889;51.350;6.708;2022-09-13T03:00:48;19.10;99.90
11666;DHT22;5889;51.350;6.708;2022-09-13T03:03:17;19.10;99.90
11666;DHT22;5889;51.350;6.708;2022-09-13T03:05:44;19.00;99.90
11666;DHT22;5889;51.350;6.708;2022-09-13T03:08:12;19.10;99.90
11666;DHT22;5889;51.350;6.708;2022-09-13T03:10:47;19.10;99.90
11666;DHT22;5889;51.350;6.708;2022-09-13T03:13:39;19.10;99.90
11666;DHT22;5889;51.350;6.708;2022-09-13T03:16:23;19.10;99.90
11666;DHT22;5889;51.350;6.708;2022-09-13T03:19:08;19.10;99.90
11666;DHT22;5889;51.350;6.708;2022-09-13T03:21:47;19.10;99.90
11666;DHT22;5889;51.350;6.708;2022-09-13T03:24:23;19.00;99.90
11666;DHT22;5889;51.350;6.708;2022-09-13T03:27:02;19.00;99.90
11666;DHT22;5889;51.350;6.708;2022-09-13T03:29:39;19.00;99.90
11666;DHT22;5889;51.350;6.708;2022-09-13T03:32:19;19.00;99.90
11666;DHT22;5889;51.350;6.708;2022-09-13T03:34:55;19.00;99.90
11666;DHT22;5889;51.350;6.708;2022-09-13T03:37:32;19.00;99.90
11666;DHT22;5889;51.350;6.708;2022-09-13T03:40:06;19.00;99.90
11666;DHT22;5889;51.350;6.708;2022-09-13T03:42:38;19.00;99.90
11666;DHT22;5889;51.350;6.708;2022-09-13T03:45:08;18.90;99.90
11666;DHT22;5889;51.350;6.708;2022-09-13T03:47:39;18.90;99.90
11666;DHT22;5889;51.350;6.708;2022-09-13T03:50:09;18.80;99.90
11666;DHT22;5889;51.350;6.708;2022-09-13T03:52:41;18.80;99.90
11666;DHT22;5889;51.350;6.708;2022-09-13T03:55:08;18.80;99.90
11666;DHT22;5889;51.350;6.708;2022-09-13T03:57:36;18.80;99.90
11666;DHT22;5889;51.350;6.708;2022-09-13T04:00:04;18.80;99.90
11666;DHT22;5889;51.350;6.708;2022-09-13T04:02:31;18.80;99.90
11666;DHT22;5889;51.350;6.708;2022-09-13T04:04:58;18.70;99.90
11666;DHT22;5889;51.350;6.708;2022-09-13T04:07:27;18.70;99.90
11666;DHT22;5889;51.350;6.708;2022-09-13T04:09:54;18.70;99.90
11666;DHT22;5889;51.350;6.708;2022-09-13T04:12:21;18.70;99.90
11666;DHT22;5889;51.350;6.708;2022-09-13T04:14:48;18.70;99.90
11666;DHT22;5889;51.350;6.708;2022-09-13T04:17:15;18.70;99.90
11666;DHT22;5889;51.350;6.708;2022-09-13T04:19:43;18.70;99.90
11666;DHT22;5889;51.350;6.708;2022-09-13T04:22:11;18.70;99.90
11666;DHT22;5889;51.350;6.708;2022-09-13T04:24:40;18.70;99.90
11666;DHT22;5889;51.350;6.708;2022-09-13T04:27:08;18.70;99.90
11666;DHT22;5889;51.350;6.708;2022-09-13T04:29:36;18.70;99.90
11666;DHT22;5889;51.350;6.708;2022-09-13T04:32:04;18.70;99.90
11666;DHT22;5889;51.350;6.708;2022-09-13T04:34:31;18.70;99.90
11666;DHT22;5889;51.350;6.708;2022-09-13T04:36:58;18.70;99.90
11666;DHT22;5889;51.350;6.708;2022-09-13T04:39:25;18.70;99.90
11666;DHT22;5889;51.350;6.708;2022-09-13T04:41:53;18.70;99.90
11666;DHT22;5889;51.350;6.708;2022-09-13T04:44:20;18.70;99.90
11666;DHT22;5889;51.350;6.708;2022-09-13T04:46:49;18.60;99.90
11666;DHT22;5889;51.350;6.708;2022-09-13T04:49:16;18.60;99.90
11666;DHT22;5889;51.350;6.708;2022-09-13T04:51:45;18.60;99.90
11666;DHT22;5889;51.350;6.708;2022-09-13T04:54:12;18.60;99.90
11666;DHT22;5889;51.350;6.708;2022-09-13T04:56:39;18.60;99.90
11666;DHT22;5889;51.350;6.708;2022-09-13T04:59:07;18.60;99.90
11666;DHT22;5889;51.350;6.708;2022-09-13T05:01:35;18.60;99.90
11666;DHT22;5889;51.350;6.708;2022-09-13T05:04:02;18.60;99.90
11666;DHT22;5889;51.350;6.708;2022-09-13T05:06:29;18.60;99.90
11666;DHT22;5889;51.350;6.708;2022-09-13T05:08:56;18.60;99.90
11666;DHT22;5889;51.350;6.708;2022-09-13T05:11:25;18.50;99.90
11666;DHT22;5889;51.350;6.708;2022-09-13T05:13:55;18.50;99.90
11666;DHT22;5889;51.350;6.708;2022-09-13T05:16:25;18.50;99.90
11666;DHT22;5889;51.350;6.708;2022-09-13T05:18:52;18.50;99.90
11666;DHT22;5889;51.350;6.708;2022-09-13T05:21:19;18.50;99.90
11666;DHT22;5889;51.350;6.708;2022-09-13T05:23:48;18.50;99.90
11666;DHT22;5889;51.350;6.708;2022-09-13T05:26:15;18.50;99.90
11666;DHT22;5889;51.350;6.708;2022-09-13T05:28:43;18.50;99.90
11666;DHT22;5889;51.350;6.708;2022-09-13T05:31:14;18.60;99.90
11666;DHT22;5889;51.350;6.708;2022-09-13T05:33:44;18.50;99.90
11666;DHT22;5889;51.350;6.708;2022-09-13T05:36:11;18.60;99.90
11666;DHT22;5889;51.350;6.708;2022-09-13T05:38:38;18.60;99.90
11666;DHT22;5889;51.350;6.708;2022-09-13T05:41:05;18.60;99.90
11666;DHT22;5889;51.350;6.708;2022-09-13T05:43:34;18.60;99.90
11666;DHT22;5889;51.350;6.708;2022-09-13T05:46:02;18.60;99.90
11666;DHT22;5889;51.350;6.708;2022-09-13T05:48:30;18.50;99.90
11666;DHT22;5889;51.350;6.708;2022-09-13T05:51:06;18.60;99.90
11666;DHT22;5889;51.350;6.708;2022-09-13T05:53:33;18.60;99.90
11666;DHT22;5889;51.350;6.708;2022-09-13T05:56:01;18.60;99.90
11666;DHT22;5889;51.350;6.708;2022-09-13T05:58:30;18.60;99.90
11666;DHT22;5889;51.350;6.708;2022-09-13T06:00:57;18.60;99.90
11666;DHT22;5889;51.350;6.708;2022-09-13T06:03:24;18.60;99.90
11666;DHT22;5889;51.350;6.708;2022-09-13T06:05:54;18.70;99.90
11666;DHT22;5889;51.350;6.708;2022-09-13T06:08:22;18.60;99.90
11666;DHT22;5889;51.350;6.708;2022-09-13T06:10:54;18.70;99.90
11666;DHT22;5889;51.350;6.708;2022-09-13T06:13:22;18.70;99.90
11666;DHT22;5889;51.350;6.708;2022-09-13T06:15:49;18.70;99.90
11666;DHT22;5889;51.350;6.708;2022-09-13T06:18:16;18.70;99.90
11666;DHT22;5889;51.350;6.708;2022-09-13T06:20:44;18.80;99.90
11666;DHT22;5889;51.350;6.708;2022-09-13T06:23:11;18.80;99.90
11666;DHT22;5889;51.350;6.708;2022-09-13T06:25:40;18.90;99.90
11666;DHT22;5889;51.350;6.708;2022-09-13T06:28:08;19.00;99.90
11666;DHT22;5889;51.350;6.708;2022-09-13T06:30:35;19.00;99.90
11666;DHT22;5889;51.350;6.708;2022-09-13T06:33:02;19.10;99.90
11666;DHT22;5889;51.350;6.708;2022-09-13T06:35:29;19.20;99.90
11666;DHT22;5889;51.350;6.708;2022-09-13T06:37:56;19.30;99.90
11666;DHT22;5889;51.350;6.708;2022-09-13T06:40:24;19.50;99.90
11666;DHT22;5889;51.350;6.708;2022-09-13T06:42:53;19.60;99.90
11666;DHT22;5889;51.350;6.708;2022-09-13T06:45:20;19.60;99.90
11666;DHT22;5889;51.350;6.708;2022-09-13T06:47:47;19.70;99.90
11666;DHT22;5889;51.350;6.708;2022-09-13T06:50:14;19.70;99.90
11666;DHT22;5889;51.350;6.708;2022-09-13T06:52:40;19.70;99.90
11666;DHT22;5889;51.350;6.708;2022-09-13T06:55:08;19.80;99.90
11666;DHT22;5889;51.350;6.708;2022-09-13T06:57:35;19.80;99.90
11666;DHT22;5889;51.350;6.708;2022-09-13T07:00:04;19.90;99.90
11666;DHT22;5889;51.350;6.708;2022-09-13T07:02:31;20.00;99.90
11666;DHT22;5889;51.350;6.708;2022-09-13T07:04:58;20.10;99.90
11666;DHT22;5889;51.350;6.708;2022-09-13T07:07:25;20.10;99.90
11666;DHT22;5889;51.350;6.708;2022-09-13T07:09:52;20.20;99.90
11666;DHT22;5889;51.350;6.708;2022-09-13T07:12:19;20.20;99.90
11666;DHT22;5889;51.350;6.708;2022-09-13T07:14:46;20.20;99.90
11666;DHT22;5889;51.350;6.708;2022-09-13T07:17:14;20.20;99.90
11666;DHT22;5889;51.350;6.708;2022-09-13T07:19:41;20.30;99.90
11666;DHT22;5889;51.350;6.708;2022-09-13T07:22:07;20.30;99.90
11666;DHT22;5889;51.350;6.708;2022-09-13T07:24:34;20.40;99.90
11666;DHT22;5889;51.350;6.708;2022-09-13T07:27:01;20.40;99.90
11666;DHT22;5889;51.350;6.708;2022-09-13T07:29:28;20.50;99.90
11666;DHT22;5889;51.350;6.708;2022-09-13T07:31:55;20.60;99.90
11666;DHT22;5889;51.350;6.708;2022-09-13T07:34:27;20.70;99.90
11666;DHT22;5889;51.350;6.708;2022-09-13T07:36:54;20.80;99.90
11666;DHT22;5889;51.350;6.708;2022-09-13T07:39:21;20.90;99.90
11666;DHT22;5889;51.350;6.708;2022-09-13T07:41:49;21.00;99.90
11666;DHT22;5889;51.350;6.708;2022-09-13T07:44:16;21.00;99.90
11666;DHT22;5889;51.350;6.708;2022-09-13T07:46:43;21.10;99.90
11666;DHT22;5889;51.350;6.708;2022-09-13T07:49:11;21.20;99.90
11666;DHT22;5889;51.350;6.708;2022-09-13T07:51:41;21.20;99.90
11666;DHT22;5889;51.350;6.708;2022-09-13T07:54:11;21.30;99.90
11666;DHT22;5889;51.350;6.708;2022-09-13T07:56:39;21.40;99.90
11666;DHT22;5889;51.350;6.708;2022-09-13T07:59:09;21.50;99.90
11666;DHT22;5889;51.350;6.708;2022-09-13T08:01:50;21.60;99.90
11666;DHT22;5889;51.350;6.708;2022-09-13T08:04:18;21.70;99.90
11666;DHT22;5889;51.350;6.708;2022-09-13T08:06:47;21.70;99.90
11666;DHT22;5889;51.350;6.708;2022-09-13T08:09:15;21.80;99.90
11666;DHT22;5889;51.350;6.708;2022-09-13T08:11:43;21.80;99.90
11666;DHT22;5889;51.350;6.708;2022-09-13T08:14:13;22.00;99.90
11666;DHT22;5889;51.350;6.708;2022-09-13T08:16:40;22.10;99.90
11666;DHT22;5889;51.350;6.708;2022-09-13T08:19:11;22.20;99.90
11666;DHT22;5889;51.350;6.708;2022-09-13T08:21:39;22.30;99.90
11666;DHT22;5889;51.350;6.708;2022-09-13T08:24:13;22.40;99.90
11666;DHT22;5889;51.350;6.708;2022-09-13T08:26:40;22.50;99.70
11666;DHT22;5889;51.350;6.708;2022-09-13T08:29:07;22.60;99.50
11666;DHT22;5889;51.350;6.708;2022-09-13T08:31:34;22.50;99.50
11666;DHT22;5889;51.350;6.708;2022-09-13T08:34:01;22.60;99.50
11666;DHT22;5889;51.350;6.708;2022-09-13T08:36:28;22.70;99.20
11666;DHT22;5889;51.350;6.708;2022-09-13T08:38:57;22.80;99.00
11666;DHT22;5889;51.350;6.708;2022-09-13T08:42:04;22.90;99.20
11666;DHT22;5889;51.350;6.708;2022-09-13T08:44:33;23.10;98.90
11666;DHT22;5889;51.350;6.708;2022-09-13T08:47:17;23.10;98.80
11666;DHT22;5889;51.350;6.708;2022-09-13T08:49:49;23.30;98.90
11666;DHT22;5889;51.350;6.708;2022-09-13T08:52:27;23.60;98.10
11666;DHT22;5889;51.350;6.708;2022-09-13T08:54:54;23.70;98.00
11666;DHT22;5889;51.350;6.708;2022-09-13T08:57:28;23.70;97.90
11666;DHT22;5889;51.350;6.708;2022-09-13T09:00:02;23.90;97.90
11666;DHT22;5889;51.350;6.708;2022-09-13T09:09:42;24.40;97.10
11666;DHT22;5889;51.350;6.708;2022-09-13T09:29:23;25.10;95.30
11666;DHT22;5889;51.350;6.708;2022-09-13T09:32:03;25.00;95.80
11666;DHT22;5889;51.350;6.708;2022-09-13T09:34:44;25.10;95.70
11666;DHT22;5889;51.350;6.708;2022-09-13T09:37:18;25.20;95.50
11666;DHT22;5889;51.350;6.708;2022-09-13T09:39:47;25.20;95.20
11666;DHT22;5889;51.350;6.708;2022-09-13T09:42:17;25.10;95.00
11666;DHT22;5889;51.350;6.708;2022-09-13T09:44:50;25.30;95.20
11666;DHT22;5889;51.350;6.708;2022-09-13T09:47:19;25.40;94.60
11666;DHT22;5889;51.350;6.708;2022-09-13T09:49:50;25.50;94.70
11666;DHT22;5889;51.350;6.708;2022-09-13T09:52:39;25.70;94.70
11666;DHT22;5889;51.350;6.708;2022-09-13T09:55:16;26.00;94.40
11666;DHT22;5889;51.350;6.708;2022-09-13T09:57:50;26.10;93.70
11666;DHT22;5889;51.350;6.708;2022-09-13T10:00:21;26.20;93.70
11666;DHT22;5889;51.350;6.708;2022-09-13T10:02:51;26.20;93.40
11666;DHT22;5889;51.350;6.708;2022-09-13T10:05:19;26.10;93.30
11666;DHT22;5889;51.350;6.708;2022-09-13T10:07:53;26.20;93.30
11666;DHT22;5889;51.350;6.708;2022-09-13T10:10:24;26.30;93.20
11666;DHT22;5889;51.350;6.708;2022-09-13T10:12:53;26.30;93.30
11666;DHT22;5889;51.350;6.708;2022-09-13T10:15:25;26.50;93.20
11666;DHT22;5889;51.350;6.708;2022-09-13T10:18:02;26.50;92.80
11666;DHT22;5889;51.350;6.708;2022-09-13T10:20:31;26.60;92.50
11666;DHT22;5889;51.350;6.708;2022-09-13T10:23:17;26.60;92.20
11666;DHT22;5889;51.350;6.708;2022-09-13T10:25:58;26.70;91.90
11666;DHT22;5889;51.350;6.708;2022-09-13T10:28:27;26.90;92.00
11666;DHT22;5889;51.350;6.708;2022-09-13T10:30:58;26.90;91.80
11666;DHT22;5889;51.350;6.708;2022-09-13T10:33:31;26.80;91.60
11666;DHT22;5889;51.350;6.708;2022-09-13T10:36:01;26.90;92.00
11666;DHT22;5889;51.350;6.708;2022-09-13T10:38:33;27.00;91.20
11666;DHT22;5889;51.350;6.708;2022-09-13T10:41:03;27.20;91.10
11666;DHT22;5889;51.350;6.708;2022-09-13T10:43:31;27.20;91.10
11666;DHT22;5889;51.350;6.708;2022-09-13T10:46:02;27.40;91.20
11666;DHT22;5889;51.350;6.708;2022-09-13T10:48:42;27.60;90.90
11666;DHT22;5889;51.350;6.708;2022-09-13T10:51:20;27.70;90.50
11666;DHT22;5889;51.350;6.708;2022-09-13T10:54:08;27.90;90.20
11666;DHT22;5889;51.350;6.708;2022-09-13T10:56:36;28.00;90.00
11666;DHT22;5889;51.350;6.708;2022-09-13T10:59:15;28.00;90.10
11666;DHT22;5889;51.350;6.708;2022-09-13T11:05:02;27.80;89.60
11666;DHT22;5889;51.350;6.708;2022-09-13T11:07:55;27.40;90.20
11666;DHT22;5889;51.350;6.708;2022-09-13T11:10:33;26.90;90.20
11666;DHT22;5889;51.350;6.708;2022-09-13T11:13:06;26.90;90.60
11666;DHT22;5889;51.350;6.708;2022-09-13T11:15:49;26.70;91.00
11666;DHT22;5889;51.350;6.708;2022-09-13T11:18:47;26.70;91.60
11666;DHT22;5889;51.350;6.708;2022-09-13T11:21:34;26.50;91.50
11666;DHT22;5889;51.350;6.708;2022-09-13T11:24:30;26.60;90.90
11666;DHT22;5889;51.350;6.708;2022-09-13T11:27:02;26.40;91.60
11666;DHT22;5889;51.350;6.708;2022-09-13T11:29:47;26.00;92.60
11666;DHT22;5889;51.350;6.708;2022-09-13T11:32:24;26.00;91.70
11666;DHT22;5889;51.350;6.708;2022-09-13T11:35:13;26.00;91.80
11666;DHT22;5889;51.350;6.708;2022-09-13T11:37:49;26.20;91.80
11666;DHT22;5889;51.350;6.708;2022-09-13T11:40:31;26.30;92.00
11666;DHT22;5889;51.350;6.708;2022-09-13T11:43:14;26.50;91.50
11666;DHT22;5889;51.350;6.708;2022-09-13T11:45:49;26.90;91.10
11666;DHT22;5889;51.350;6.708;2022-09-13T11:51:30;27.20;91.00
11666;DHT22;5889;51.350;6.708;2022-09-13T11:54:17;27.10;90.90
11666;DHT22;5889;51.350;6.708;2022-09-13T11:56:48;27.00;92.00
11666;DHT22;5889;51.350;6.708;2022-09-13T11:59:22;26.90;91.20
11666;DHT22;5889;51.350;6.708;2022-09-13T12:01:58;26.80;91.30
11666;DHT22;5889;51.350;6.708;2022-09-13T12:04:32;26.80;91.70
11666;DHT22;5889;51.350;6.708;2022-09-13T12:07:05;26.90;92.00
11666;DHT22;5889;51.350;6.708;2022-09-13T12:09:39;26.80;91.30
11666;DHT22;5889;51.350;6.708;2022-09-13T12:12:09;26.90;91.30
11666;DHT22;5889;51.350;6.708;2022-09-13T12:14:42;26.90;91.30
11666;DHT22;5889;51.350;6.708;2022-09-13T12:17:22;27.00;91.10
11666;DHT22;5889;51.350;6.708;2022-09-13T12:19:52;27.00;91.70
11666;DHT22;5889;51.350;6.708;2022-09-13T12:22:23;27.00;92.00
11666;DHT22;5889;51.350;6.708;2022-09-13T12:24:55;27.10;91.60
11666;DHT22;5889;51.350;6.708;2022-09-13T12:27:27;27.00;91.00
11666;DHT22;5889;51.350;6.708;2022-09-13T12:30:03;26.80;92.20
11666;DHT22;5889;51.350;6.708;2022-09-13T12:32:31;26.60;91.80
11666;DHT22;5889;51.350;6.708;2022-09-13T12:35:01;26.50;92.20
11666;DHT22;5889;51.350;6.708;2022-09-13T12:38:01;26.50;91.80
11666;DHT22;5889;51.350;6.708;2022-09-13T12:40:37;26.60;91.90
11666;DHT22;5889;51.350;6.708;2022-09-13T12:43:41;26.90;90.70
11666;DHT22;5889;51.350;6.708;2022-09-13T12:46:32;27.00;90.90
11666;DHT22;5889;51.350;6.708;2022-09-13T12:49:24;27.30;90.90
11666;DHT22;5889;51.350;6.708;2022-09-13T12:52:10;27.60;90.40
11666;DHT22;5889;51.350;6.708;2022-09-13T12:55:17;27.70;90.20
11666;DHT22;5889;51.350;6.708;2022-09-13T12:57:50;27.60;90.80
11666;DHT22;5889;51.350;6.708;2022-09-13T13:00:22;27.20;91.90
11666;DHT22;5889;51.350;6.708;2022-09-13T13:02:56;26.90;91.70
11666;DHT22;5889;51.350;6.708;2022-09-13T13:05:28;26.90;91.20
11666;DHT22;5889;51.350;6.708;2022-09-13T13:07:58;26.90;91.80
11666;DHT22;5889;51.350;6.708;2022-09-13T13:10:30;27.00;91.30
11666;DHT22;5889;51.350;6.708;2022-09-13T13:13:11;27.00;91.00
11666;DHT22;5889;51.350;6.708;2022-09-13T13:16:22;27.10;91.30
11666;DHT22;5889;51.350;6.708;2022-09-13T13:18:50;27.20;91.50
11666;DHT22;5889;51.350;6.708;2022-09-13T13:21:33;27.10;91.30
11666;DHT22;5889;51.350;6.708;2022-09-13T13:24:42;27.20;90.90
11666;DHT22;5889;51.350;6.708;2022-09-13T13:27:37;27.20;90.40
11666;DHT22;5889;51.350;6.708;2022-09-13T13:30:45;27.20;90.80
11666;DHT22;5889;51.350;6.708;2022-09-13T13:33:18;27.10;90.40
11666;DHT22;5889;51.350;6.708;2022-09-13T13:35:46;27.00;90.60
11666;DHT22;5889;51.350;6.708;2022-09-13T13:38:15;27.10;90.60
11666;DHT22;5889;51.350;6.708;2022-09-13T13:40:42;27.40;90.60
11666;DHT22;5889;51.350;6.708;2022-09-13T13:43:28;27.50;90.30
11666;DHT22;5889;51.350;6.708;2022-09-13T13:48:41;26.90;91.30
11666;DHT22;5889;51.350;6.708;2022-09-13T13:51:29;26.90;91.30
11666;DHT22;5889;51.350;6.708;2022-09-13T13:54:02;26.90;91.50
11666;DHT22;5889;51.350;6.708;2022-09-13T13:56:46;27.00;91.40
11666;DHT22;5889;51.350;6.708;2022-09-13T13:59:19;27.10;91.50
11666;DHT22;5889;51.350;6.708;2022-09-13T14:01:51;27.00;92.20
11666;DHT22;5889;51.350;6.708;2022-09-13T14:04:41;26.80;91.60
11666;DHT22;5889;51.350;6.708;2022-09-13T14:07:29;26.70;91.30
11666;DHT22;5889;51.350;6.708;2022-09-13T14:10:03;26.80;91.90
11666;DHT22;5889;51.350;6.708;2022-09-13T14:12:42;26.60;91.40
11666;DHT22;5889;51.350;6.708;2022-09-13T14:15:39;26.50;91.90
11666;DHT22;5889;51.350;6.708;2022-09-13T14:18:43;26.60;92.10
11666;DHT22;5889;51.350;6.708;2022-09-13T14:21:23;26.60;91.20
11666;DHT22;5889;51.350;6.708;2022-09-13T14:24:07;26.70;91.60
11666;DHT22;5889;51.350;6.708;2022-09-13T14:26:34;26.60;91.60
11666;DHT22;5889;51.350;6.708;2022-09-13T14:29:05;26.60;91.00
11666;DHT22;5889;51.350;6.708;2022-09-13T14:31:34;26.50;91.40
11666;DHT22;5889;51.350;6.708;2022-09-13T14:34:01;26.50;91.80
11666;DHT22;5889;51.350;6.708;2022-09-13T14:36:28;26.40;92.10
11666;DHT22;5889;51.350;6.708;2022-09-13T14:38:57;26.30;92.20
11666;DHT22;5889;51.350;6.708;2022-09-13T14:41:29;26.30;92.00
11666;DHT22;5889;51.350;6.708;2022-09-13T14:44:13;26.40;91.80
11666;DHT22;5889;51.350;6.708;2022-09-13T14:46:44;26.40;91.60
11666;DHT22;5889;51.350;6.708;2022-09-13T14:49:17;26.40;91.90
11666;DHT22;5889;51.350;6.708;2022-09-13T14:51:49;26.40;91.70
11666;DHT22;5889;51.350;6.708;2022-09-13T14:54:22;26.40;91.90
11666;DHT22;5889;51.350;6.708;2022-09-13T14:56:52;26.30;92.10
11666;DHT22;5889;51.350;6.708;2022-09-13T14:59:25;26.20;92.30
11666;DHT22;5889;51.350;6.708;2022-09-13T15:01:55;26.10;92.50
11666;DHT22;5889;51.350;6.708;2022-09-13T15:04:23;26.10;92.50
11666;DHT22;5889;51.350;6.708;2022-09-13T15:07:05;26.10;92.10
11666;DHT22;5889;51.350;6.708;2022-09-13T15:09:32;26.10;92.50
11666;DHT22;5889;51.350;6.708;2022-09-13T15:12:02;26.00;92.70
11666;DHT22;5889;51.350;6.708;2022-09-13T15:14:30;26.00;93.00
11666;DHT22;5889;51.350;6.708;2022-09-13T15:17:07;26.00;93.00
11666;DHT22;5889;51.350;6.708;2022-09-13T15:19:39;25.90;93.40
11666;DHT22;5889;51.350;6.708;2022-09-13T15:22:19;25.80;93.50
11666;DHT22;5889;51.350;6.708;2022-09-13T15:24:49;25.70;93.70
11666;DHT22;5889;51.350;6.708;2022-09-13T15:27:22;25.70;93.60
11666;DHT22;5889;51.350;6.708;2022-09-13T15:29:51;25.70;93.90
11666;DHT22;5889;51.350;6.708;2022-09-13T15:32:23;25.70;94.00
11666;DHT22;5889;51.350;6.708;2022-09-13T15:34:50;25.70;93.80
11666;DHT22;5889;51.350;6.708;2022-09-13T15:37:27;25.60;93.80
11666;DHT22;5889;51.350;6.708;2022-09-13T15:40:12;25.60;94.10
11666;DHT22;5889;51.350;6.708;2022-09-13T15:42:39;25.50;93.90
11666;DHT22;5889;51.350;6.708;2022-09-13T15:45:07;25.40;94.20
11666;DHT22;5889;51.350;6.708;2022-09-13T15:47:36;25.40;93.50
11666;DHT22;5889;51.350;6.708;2022-09-13T15:50:04;25.40;93.90
11666;DHT22;5889;51.350;6.708;2022-09-13T15:52:31;25.40;93.90
11666;DHT22;5889;51.350;6.708;2022-09-13T15:54:58;25.40;94.40
11666;DHT22;5889;51.350;6.708;2022-09-13T15:57:27;25.40;93.80
11666;DHT22;5889;51.350;6.708;2022-09-13T15:59:56;25.30;93.70
11666;DHT22;5889;51.350;6.708;2022-09-13T16:02:24;25.20;93.50
11666;DHT22;5889;51.350;6.708;2022-09-13T16:04:54;25.20;93.80
11666;DHT22;5889;51.350;6.708;2022-09-13T16:07:23;25.20;94.30
11666;DHT22;5889;51.350;6.708;2022-09-13T16:09:51;25.20;94.60
11666;DHT22;5889;51.350;6.708;2022-09-13T16:12:18;25.20;95.10
11666;DHT22;5889;51.350;6.708;2022-09-13T16:14:48;25.10;94.90
11666;DHT22;5889;51.350;6.708;2022-09-13T16:17:19;25.00;95.40
11666;DHT22;5889;51.350;6.708;2022-09-13T16:19:46;25.00;94.90
11666;DHT22;5889;51.350;6.708;2022-09-13T16:22:15;24.90;95.30
11666;DHT22;5889;51.350;6.708;2022-09-13T16:24:42;24.80;95.50
11666;DHT22;5889;51.350;6.708;2022-09-13T16:27:09;24.80;96.10
11666;DHT22;5889;51.350;6.708;2022-09-13T16:29:36;24.70;96.60
11666;DHT22;5889;51.350;6.708;2022-09-13T16:32:03;24.70;96.80
11666;DHT22;5889;51.350;6.708;2022-09-13T16:34:30;24.70;96.80
11666;DHT22;5889;51.350;6.708;2022-09-13T16:36:57;24.60;96.80
11666;DHT22;5889;51.350;6.708;2022-09-13T16:39:25;24.60;97.00
11666;DHT22;5889;51.350;6.708;2022-09-13T16:41:52;24.60;97.50
11666;DHT22;5889;51.350;6.708;2022-09-13T16:44:19;24.60;97.90
11666;DHT22;5889;51.350;6.708;2022-09-13T16:46:46;24.50;98.30
11666;DHT22;5889;51.350;6.708;2022-09-13T16:49:13;24.40;98.80
11666;DHT22;5889;51.350;6.708;2022-09-13T16:51:40;24.30;99.00
11666;DHT22;5889;51.350;6.708;2022-09-13T16:54:07;24.20;99.10
11666;DHT22;5889;51.350;6.708;2022-09-13T16:56:35;24.20;99.60
11666;DHT22;5889;51.350;6.708;2022-09-13T16:59:02;24.20;99.80